ADDS METAR Data INFO
IDs: Format: Raw Decoded Include TAF

Data at: 0734 UTC 18 Oct 2017

KDVN 180652Z AUTO 19007KT 10SM CLR 11/05 A3011 RMK AO2 SLP193 T01110050
KDVN 180552Z AUTO 19008KT 10SM CLR 13/05 A3012 RMK AO2 SLP195 T01280050 10156 20128 402170083 58003
KDVN 180452Z AUTO 19010KT 10SM CLR 13/05 A3013 RMK AO2 SLP197 T01330050
KDVN 180352Z AUTO 19012KT 10SM CLR 14/05 A3013 RMK AO2 SLP199 T01440050
KDVN 180252Z AUTO 19008KT 10SM CLR 14/06 A3013 RMK AO2 SLP199 T01390056 51004
KDVN 180152Z AUTO 19009KT 10SM CLR 14/06 A3013 RMK AO2 SLP198 T01390061
KDVN 180052Z AUTO 19007KT 10SM CLR 14/06 A3013 RMK AO2 SLP199 T01390056
KDVN 172352Z AUTO 19008KT 10SM CLR 16/06 A3012 RMK AO2 SLP196 T01610056 10217 20156 55001
KDVN 172252Z AUTO 19007KT 10SM CLR 18/06 A3011 RMK AO2 SLP193 T01830056
KDVN 172152Z AUTO 20012G16KT 10SM CLR 21/06 A3011 RMK AO2 SLP192 T02060056
KDVN 172052Z AUTO 19012KT 10SM CLR 21/06 A3012 RMK AO2 SLP196 T02110061 56017
KDVN 171952Z AUTO 20013G18KT 10SM CLR 21/06 A3013 RMK AO2 SLP200 T02110061
KDVN 171852Z AUTO 20012G20KT 10SM CLR 21/06 A3015 RMK AO2 SLP204 T02060056
KDVN 171752Z AUTO 20013G20KT 10SM CLR 20/06 A3017 RMK AO2 SLP213 T02000056 10206 20100 58014 $
KDVN 171652Z AUTO 22015G21KT 10SM CLR 19/06 A3019 RMK AO2 SLP220 T01890056 $
KDVN 171552Z AUTO 23010G20KT 10SM CLR 18/06 A3020 RMK AO2 SLP225 T01780056 $
KDVN 171452Z AUTO 23008KT 10SM CLR 16/05 A3021 RMK AO2 SLP229 T01560050 53004 $
KDVN 171352Z AUTO 21011KT 10SM CLR 12/05 A3021 RMK AO2 SLP228 T01220050
KDVN 171252Z AUTO 20009KT 10SM CLR 10/04 A3020 RMK AO2 SLP227 T01000044
KDVN 171152Z AUTO 21009KT 10SM CLR 10/04 A3020 RMK AO2 SLP226 T01000044 10122 20083 50004
KDVN 171052Z AUTO 20006KT 10SM CLR 09/04 A3021 RMK AO2 SLP227 T00940044
KDVN 170952Z AUTO 20007KT 10SM CLR 10/04 A3020 RMK AO2 SLP223 T01000039
KDVN 170852Z AUTO 20006KT 10SM CLR 10/04 A3019 RMK AO2 SLP220 T01000039 50000
KDVN 170752Z AUTO 21007KT 10SM CLR 11/03 A3019 RMK AO2 SLP221 T01110033
KDVN 170652Z AUTO 21009KT 10SM CLR 12/03 A3019 RMK AO2 SLP220 T01170028
KDVN 170552Z AUTO 21009KT 10SM CLR 12/03 A3019 RMK AO2 SLP221 T01170028 10117 20094 401890017 58009
KDVN 170452Z AUTO 21007KT 10SM CLR 11/03 A3021 RMK AO2 SLP226 T01110033
KDVN 170352Z AUTO 21006KT 10SM CLR 11/03 A3022 RMK AO2 SLP230 T01110033
KDVN 170252Z AUTO 19006KT 10SM CLR 09/03 A3022 RMK AO2 SLP232 T00940033 56002
KDVN 170152Z AUTO 18006KT 10SM CLR 09/04 A3022 RMK AO2 SLP233 T00940039
KDVN 170052Z AUTO 18006KT 10SM CLR 10/03 A3022 RMK AO2 SLP234 T01000033
KDVN 162352Z AUTO 20006KT 10SM CLR 12/03 A3023 RMK AO2 SLP236 T01170028 10189 20117 56007
KDVN 162252Z AUTO 21005KT 10SM CLR 16/02 A3023 RMK AO2 SLP236 T01610017
KDVN 162152Z AUTO 25009KT 10SM CLR 18/01 A3023 RMK AO2 SLP237 T01780006
KDVN 162052Z AUTO 25008KT 10SM CLR 18/01 A3025 RMK AO2 SLP241 T01830011 56026
KDVN 161952Z AUTO 28008G14KT 10SM CLR 18/02 A3027 RMK AO2 SLP248 T01780022